sensor_id;sensor_type;location;lat;lon;timestamp;temperature;humidity
8481;DHT22;4277;51.354;6.740;2022-07-29T00:01:22;20.30;3.10
8481;DHT22;4277;51.354;6.740;2022-07-29T00:03:48;20.20;1.70
8481;DHT22;4277;51.354;6.740;2022-07-29T00:06:14;20.20;2.20
8481;DHT22;4277;51.354;6.740;2022-07-29T00:08:40;20.20;1.00
8481;DHT22;4277;51.354;6.740;2022-07-29T00:11:06;20.20;2.20
8481;DHT22;4277;51.354;6.740;2022-07-29T00:13:31;20.10;2.40
8481;DHT22;4277;51.354;6.740;2022-07-29T00:15:57;20.20;2.70
8481;DHT22;4277;51.354;6.740;2022-07-29T00:18:22;20.20;3.10
8481;DHT22;4277;51.354;6.740;2022-07-29T00:20:48;20.10;2.20
8481;DHT22;4277;51.354;6.740;2022-07-29T00:23:13;20.20;2.50
8481;DHT22;4277;51.354;6.740;2022-07-29T00:25:39;20.10;3.40
8481;DHT22;4277;51.354;6.740;2022-07-29T00:28:05;20.20;3.50
8481;DHT22;4277;51.354;6.740;2022-07-29T00:30:31;20.10;3.90
8481;DHT22;4277;51.354;6.740;2022-07-29T00:32:56;20.10;3.20
8481;DHT22;4277;51.354;6.740;2022-07-29T00:35:22;20.10;3.90
8481;DHT22;4277;51.354;6.740;2022-07-29T00:38:06;20.10;3.90
8481;DHT22;4277;51.354;6.740;2022-07-29T00:40:31;20.00;3.10
8481;DHT22;4277;51.354;6.740;2022-07-29T00:42:57;20.00;4.00
8481;DHT22;4277;51.354;6.740;2022-07-29T00:45:23;20.00;3.50
8481;DHT22;4277;51.354;6.740;2022-07-29T00:47:48;20.00;4.50
8481;DHT22;4277;51.354;6.740;2022-07-29T00:50:14;20.00;4.50
8481;DHT22;4277;51.354;6.740;2022-07-29T00:52:41;20.00;4.40
8481;DHT22;4277;51.354;6.740;2022-07-29T00:55:10;19.90;4.10
8481;DHT22;4277;51.354;6.740;2022-07-29T00:57:36;19.90;4.40
8481;DHT22;4277;51.354;6.740;2022-07-29T01:00:07;19.90;3.70
8481;DHT22;4277;51.354;6.740;2022-07-29T01:02:33;19.90;4.90
8481;DHT22;4277;51.354;6.740;2022-07-29T01:04:59;19.80;4.90
8481;DHT22;4277;51.354;6.740;2022-07-29T01:07:26;19.80;5.10
8481;DHT22;4277;51.354;6.740;2022-07-29T01:09:52;19.80;4.60
8481;DHT22;4277;51.354;6.740;2022-07-29T01:12:27;19.80;5.60
8481;DHT22;4277;51.354;6.740;2022-07-29T01:14:55;19.80;6.00
8481;DHT22;4277;51.354;6.740;2022-07-29T01:17:22;19.80;5.20
8481;DHT22;4277;51.354;6.740;2022-07-29T01:25:09;19.70;6.50
8481;DHT22;4277;51.354;6.740;2022-07-29T01:28:08;19.60;6.30
8481;DHT22;4277;51.354;6.740;2022-07-29T10:20:08;20.30;97.30
8481;DHT22;4277;51.354;6.740;2022-07-29T10:22:34;20.40;93.90
8481;DHT22;4277;51.354;6.740;2022-07-29T10:24:59;20.50;96.10
8481;DHT22;4277;51.354;6.740;2022-07-29T10:27:25;20.70;96.10
8481;DHT22;4277;51.354;6.740;2022-07-29T10:29:50;20.80;91.20
8481;DHT22;4277;51.354;6.740;2022-07-29T10:32:27;20.90;89.30
8481;DHT22;4277;51.354;6.740;2022-07-29T10:40:29;21.00;73.30
8481;DHT22;4277;51.354;6.740;2022-07-29T10:43:26;21.10;76.10
8481;DHT22;4277;51.354;6.740;2022-07-29T10:45:56;21.10;66.80
8481;DHT22;4277;51.354;6.740;2022-07-29T10:48:23;21.10;65.20
8481;DHT22;4277;51.354;6.740;2022-07-29T10:51:07;21.20;72.00
8481;DHT22;4277;51.354;6.740;2022-07-29T10:56:32;21.20;67.20
8481;DHT22;4277;51.354;6.740;2022-07-29T11:01:46;21.20;56.70
8481;DHT22;4277;51.354;6.740;2022-07-29T11:04:11;21.30;56.50
8481;DHT22;4277;51.354;6.740;2022-07-29T11:09:28;21.60;55.50
8481;DHT22;4277;51.354;6.740;2022-07-29T11:11:56;21.60;53.60
8481;DHT22;4277;51.354;6.740;2022-07-29T11:17:17;21.70;49.30
8481;DHT22;4277;51.354;6.740;2022-07-29T11:19:43;21.80;52.60
8481;DHT22;4277;51.354;6.740;2022-07-29T11:22:10;21.90;54.70
8481;DHT22;4277;51.354;6.740;2022-07-29T11:24:36;21.90;50.00
8481;DHT22;4277;51.354;6.740;2022-07-29T11:27:12;22.00;49.90
8481;DHT22;4277;51.354;6.740;2022-07-29T11:29:53;22.00;52.80
8481;DHT22;4277;51.354;6.740;2022-07-29T11:32:20;21.90;45.00
8481;DHT22;4277;51.354;6.740;2022-07-29T11:35:10;22.00;49.10
8481;DHT22;4277;51.354;6.740;2022-07-29T11:37:36;21.90;50.00
8481;DHT22;4277;51.354;6.740;2022-07-29T11:42:37;22.10;53.60
8481;DHT22;4277;51.354;6.740;2022-07-29T11:45:44;22.20;51.20
8481;DHT22;4277;51.354;6.740;2022-07-29T11:48:01;22.30;51.80
8481;DHT22;4277;51.354;6.740;2022-07-29T11:52:57;22.40;51.00
8481;DHT22;4277;51.354;6.740;2022-07-29T11:55:23;22.60;50.50
8481;DHT22;4277;51.354;6.740;2022-07-29T11:57:57;22.60;45.80
8481;DHT22;4277;51.354;6.740;2022-07-29T12:00:35;22.60;47.30
8481;DHT22;4277;51.354;6.740;2022-07-29T12:03:08;22.50;46.00
8481;DHT22;4277;51.354;6.740;2022-07-29T12:05:35;22.50;48.90
8481;DHT22;4277;51.354;6.740;2022-07-29T12:08:12;22.50;46.30
8481;DHT22;4277;51.354;6.740;2022-07-29T12:10:39;22.50;44.00
8481;DHT22;4277;51.354;6.740;2022-07-29T12:13:05;22.50;43.10
8481;DHT22;4277;51.354;6.740;2022-07-29T12:15:31;22.50;41.20
8481;DHT22;4277;51.354;6.740;2022-07-29T12:17:57;22.50;48.40
8481;DHT22;4277;51.354;6.740;2022-07-29T12:20:25;22.40;44.30
8481;DHT22;4277;51.354;6.740;2022-07-29T12:22:51;22.50;43.80
8481;DHT22;4277;51.354;6.740;2022-07-29T12:25:19;22.50;43.30
8481;DHT22;4277;51.354;6.740;2022-07-29T12:27:45;22.50;43.30
8481;DHT22;4277;51.354;6.740;2022-07-29T12:30:13;22.40;36.40
8481;DHT22;4277;51.354;6.740;2022-07-29T12:37:38;22.70;46.40
8481;DHT22;4277;51.354;6.740;2022-07-29T12:40:06;22.70;43.90
8481;DHT22;4277;51.354;6.740;2022-07-29T12:42:32;22.80;43.20
8481;DHT22;4277;51.354;6.740;2022-07-29T12:44:58;22.70;44.00
8481;DHT22;4277;51.354;6.740;2022-07-29T12:47:24;22.80;37.10
8481;DHT22;4277;51.354;6.740;2022-07-29T12:49:50;22.90;40.90
8481;DHT22;4277;51.354;6.740;2022-07-29T12:52:33;22.90;39.50
8481;DHT22;4277;51.354;6.740;2022-07-29T12:54:59;23.00;39.50
8481;DHT22;4277;51.354;6.740;2022-07-29T12:57:25;23.10;33.80
8481;DHT22;4277;51.354;6.740;2022-07-29T13:02:33;23.30;35.90
8481;DHT22;4277;51.354;6.740;2022-07-29T13:05:00;23.20;29.90
8481;DHT22;4277;51.354;6.740;2022-07-29T13:07:28;23.30;29.90
8481;DHT22;4277;51.354;6.740;2022-07-29T13:12:39;23.50;27.50
8481;DHT22;4277;51.354;6.740;2022-07-29T13:15:14;23.70;25.30
8481;DHT22;4277;51.354;6.740;2022-07-29T13:17:44;23.70;27.00
8481;DHT22;4277;51.354;6.740;2022-07-29T13:20:11;23.90;25.60
8481;DHT22;4277;51.354;6.740;2022-07-29T13:22:41;24.00;26.10
8481;DHT22;4277;51.354;6.740;2022-07-29T13:25:08;24.10;25.00
8481;DHT22;4277;51.354;6.740;2022-07-29T13:27:36;24.30;24.10
8481;DHT22;4277;51.354;6.740;2022-07-29T13:30:04;24.20;21.40
8481;DHT22;4277;51.354;6.740;2022-07-29T13:32:30;24.10;24.30
8481;DHT22;4277;51.354;6.740;2022-07-29T13:34:57;24.10;24.00
8481;DHT22;4277;51.354;6.740;2022-07-29T13:37:23;24.10;25.60
8481;DHT22;4277;51.354;6.740;2022-07-29T13:39:48;24.20;23.50
8481;DHT22;4277;51.354;6.740;2022-07-29T13:42:14;24.40;22.80
8481;DHT22;4277;51.354;6.740;2022-07-29T13:44:40;24.30;21.70
8481;DHT22;4277;51.354;6.740;2022-07-29T13:47:06;24.40;18.90
8481;DHT22;4277;51.354;6.740;2022-07-29T13:49:32;24.30;18.10
8481;DHT22;4277;51.354;6.740;2022-07-29T13:51:58;24.30;19.80
8481;DHT22;4277;51.354;6.740;2022-07-29T13:54:24;24.30;23.10
8481;DHT22;4277;51.354;6.740;2022-07-29T13:56:50;24.20;23.00
8481;DHT22;4277;51.354;6.740;2022-07-29T13:59:16;24.20;24.40
8481;DHT22;4277;51.354;6.740;2022-07-29T14:01:42;24.10;20.50
8481;DHT22;4277;51.354;6.740;2022-07-29T14:04:09;24.20;21.70
8481;DHT22;4277;51.354;6.740;2022-07-29T14:06:35;24.40;18.70
8481;DHT22;4277;51.354;6.740;2022-07-29T14:09:00;24.40;18.80
8481;DHT22;4277;51.354;6.740;2022-07-29T14:11:26;24.40;21.40
8481;DHT22;4277;51.354;6.740;2022-07-29T14:13:51;24.50;21.40
8481;DHT22;4277;51.354;6.740;2022-07-29T14:16:17;24.50;19.40
8481;DHT22;4277;51.354;6.740;2022-07-29T14:18:42;24.40;15.90
8481;DHT22;4277;51.354;6.740;2022-07-29T14:21:08;24.40;18.50
8481;DHT22;4277;51.354;6.740;2022-07-29T14:23:34;24.30;18.40
8481;DHT22;4277;51.354;6.740;2022-07-29T14:26:00;24.50;19.50
8481;DHT22;4277;51.354;6.740;2022-07-29T14:28:25;24.60;15.50
8481;DHT22;4277;51.354;6.740;2022-07-29T14:30:52;24.70;16.90
8481;DHT22;4277;51.354;6.740;2022-07-29T14:33:17;24.60;15.50
8481;DHT22;4277;51.354;6.740;2022-07-29T14:35:44;24.70;15.10
8481;DHT22;4277;51.354;6.740;2022-07-29T14:38:10;24.80;13.70
8481;DHT22;4277;51.354;6.740;2022-07-29T14:40:35;24.80;13.10
8481;DHT22;4277;51.354;6.740;2022-07-29T14:43:02;25.00;16.10
8481;DHT22;4277;51.354;6.740;2022-07-29T14:45:28;25.00;16.00
8481;DHT22;4277;51.354;6.740;2022-07-29T14:47:54;25.00;17.10
8481;DHT22;4277;51.354;6.740;2022-07-29T14:50:19;24.80;15.90
8481;DHT22;4277;51.354;6.740;2022-07-29T14:52:45;24.70;14.80
8481;DHT22;4277;51.354;6.740;2022-07-29T14:55:11;24.80;14.10
8481;DHT22;4277;51.354;6.740;2022-07-29T14:57:36;25.00;15.60
8481;DHT22;4277;51.354;6.740;2022-07-29T15:00:04;25.00;10.60
8481;DHT22;4277;51.354;6.740;2022-07-29T15:02:31;25.20;9.20
8481;DHT22;4277;51.354;6.740;2022-07-29T15:04:56;25.20;11.00
8481;DHT22;4277;51.354;6.740;2022-07-29T15:07:22;25.10;9.50
8481;DHT22;4277;51.354;6.740;2022-07-29T15:09:47;25.10;9.40
8481;DHT22;4277;51.354;6.740;2022-07-29T15:12:13;25.30;12.00
8481;DHT22;4277;51.354;6.740;2022-07-29T15:14:39;25.30;10.20
8481;DHT22;4277;51.354;6.740;2022-07-29T15:17:05;25.30;7.40
8481;DHT22;4277;51.354;6.740;2022-07-29T15:19:30;25.40;6.10
8481;DHT22;4277;51.354;6.740;2022-07-29T15:21:56;25.40;10.70
8481;DHT22;4277;51.354;6.740;2022-07-29T15:24:21;25.40;5.40
8481;DHT22;4277;51.354;6.740;2022-07-29T15:26:47;25.30;1.20
8481;DHT22;4277;51.354;6.740;2022-07-29T15:29:13;25.30;3.00
8481;DHT22;4277;51.354;6.740;2022-07-29T15:31:39;25.20;2.70
8481;DHT22;4277;51.354;6.740;2022-07-29T15:34:05;25.10;2.80
8481;DHT22;4277;51.354;6.740;2022-07-29T15:36:30;25.30;3.00
8481;DHT22;4277;51.354;6.740;2022-07-29T15:38:56;25.40;1.00
8481;DHT22;4277;51.354;6.740;2022-07-29T15:41:22;25.50;1.00
8481;DHT22;4277;51.354;6.740;2022-07-29T15:43:48;25.60;1.00
8481;DHT22;4277;51.354;6.740;2022-07-29T15:46:15;25.70;1.00
8481;DHT22;4277;51.354;6.740;2022-07-29T15:49:01;25.80;1.00
8481;DHT22;4277;51.354;6.740;2022-07-29T15:51:27;25.80;4.70
8481;DHT22;4277;51.354;6.740;2022-07-29T15:53:53;26.10;1.00
8481;DHT22;4277;51.354;6.740;2022-07-29T15:56:18;26.20;1.00
8481;DHT22;4277;51.354;6.740;2022-07-29T15:58:44;26.30;1.00
8481;DHT22;4277;51.354;6.740;2022-07-29T16:01:09;26.30;1.00
8481;DHT22;4277;51.354;6.740;2022-07-29T16:03:35;26.30;1.00
8481;DHT22;4277;51.354;6.740;2022-07-29T16:06:01;26.20;1.00
8481;DHT22;4277;51.354;6.740;2022-07-29T16:08:27;26.20;1.00
8481;DHT22;4277;51.354;6.740;2022-07-29T16:10:52;26.00;1.00
8481;DHT22;4277;51.354;6.740;2022-07-29T16:13:18;26.00;1.00
8481;DHT22;4277;51.354;6.740;2022-07-29T16:15:43;26.10;1.00
8481;DHT22;4277;51.354;6.740;2022-07-29T16:18:09;25.90;1.00
8481;DHT22;4277;51.354;6.740;2022-07-29T16:20:35;25.80;1.00
8481;DHT22;4277;51.354;6.740;2022-07-29T16:23:01;25.70;1.00
8481;DHT22;4277;51.354;6.740;2022-07-29T16:25:27;25.60;1.00
8481;DHT22;4277;51.354;6.740;2022-07-29T16:27:53;25.40;1.00
8481;DHT22;4277;51.354;6.740;2022-07-29T16:30:18;25.30;1.80
8481;DHT22;4277;51.354;6.740;2022-07-29T16:32:44;25.20;1.00
8481;DHT22;4277;51.354;6.740;2022-07-29T16:35:10;25.30;2.00
8481;DHT22;4277;51.354;6.740;2022-07-29T16:37:35;25.30;1.00
8481;DHT22;4277;51.354;6.740;2022-07-29T16:40:04;25.40;1.90
8481;DHT22;4277;51.354;6.740;2022-07-29T16:42:30;25.50;1.00
8481;DHT22;4277;51.354;6.740;2022-07-29T16:44:56;25.60;1.10
8481;DHT22;4277;51.354;6.740;2022-07-29T16:47:21;25.90;1.00
8481;DHT22;4277;51.354;6.740;2022-07-29T16:49:48;25.90;2.10
8481;DHT22;4277;51.354;6.740;2022-07-29T16:52:13;26.20;1.00
8481;DHT22;4277;51.354;6.740;2022-07-29T16:54:39;26.40;1.00
8481;DHT22;4277;51.354;6.740;2022-07-29T16:57:05;26.70;1.00
8481;DHT22;4277;51.354;6.740;2022-07-29T16:59:31;27.00;1.00
8481;DHT22;4277;51.354;6.740;2022-07-29T17:06:49;28.20;18.60
8481;DHT22;4277;51.354;6.740;2022-07-29T17:09:14;28.80;1.00
8481;DHT22;4277;51.354;6.740;2022-07-29T17:11:41;29.50;1.00
8481;DHT22;4277;51.354;6.740;2022-07-29T17:14:08;30.10;1.00
8481;DHT22;4277;51.354;6.740;2022-07-29T17:16:34;30.60;1.00
8481;DHT22;4277;51.354;6.740;2022-07-29T17:19:00;31.00;1.00
8481;DHT22;4277;51.354;6.740;2022-07-29T17:21:25;31.40;1.00
8481;DHT22;4277;51.354;6.740;2022-07-29T17:23:52;31.00;1.00
8481;DHT22;4277;51.354;6.740;2022-07-29T17:26:18;31.30;1.00
8481;DHT22;4277;51.354;6.740;2022-07-29T17:28:44;31.40;1.00
8481;DHT22;4277;51.354;6.740;2022-07-29T17:31:10;30.80;1.00
8481;DHT22;4277;51.354;6.740;2022-07-29T17:33:36;30.40;1.00
8481;DHT22;4277;51.354;6.740;2022-07-29T17:36:02;30.30;1.00
8481;DHT22;4277;51.354;6.740;2022-07-29T17:38:46;30.00;1.00
8481;DHT22;4277;51.354;6.740;2022-07-29T17:41:12;29.80;1.00
8481;DHT22;4277;51.354;6.740;2022-07-29T17:43:37;29.80;1.00
8481;DHT22;4277;51.354;6.740;2022-07-29T17:46:03;29.80;1.00
8481;DHT22;4277;51.354;6.740;2022-07-29T17:48:28;30.00;1.00
8481;DHT22;4277;51.354;6.740;2022-07-29T17:50:55;30.40;1.00
8481;DHT22;4277;51.354;6.740;2022-07-29T17:53:20;30.20;1.00
8481;DHT22;4277;51.354;6.740;2022-07-29T17:55:46;29.60;1.00
8481;DHT22;4277;51.354;6.740;2022-07-29T17:58:13;29.20;1.00
8481;DHT22;4277;51.354;6.740;2022-07-29T18:00:39;28.60;1.00
8481;DHT22;4277;51.354;6.740;2022-07-29T18:03:05;28.20;1.00
8481;DHT22;4277;51.354;6.740;2022-07-29T18:05:30;28.10;1.00
8481;DHT22;4277;51.354;6.740;2022-07-29T18:07:56;27.60;1.00
8481;DHT22;4277;51.354;6.740;2022-07-29T18:10:22;27.30;1.00
8481;DHT22;4277;51.354;6.740;2022-07-29T18:12:47;27.10;1.00
8481;DHT22;4277;51.354;6.740;2022-07-29T18:15:13;26.90;1.00
8481;DHT22;4277;51.354;6.740;2022-07-29T18:17:39;26.90;1.00
8481;DHT22;4277;51.354;6.740;2022-07-29T18:20:05;26.90;1.00
8481;DHT22;4277;51.354;6.740;2022-07-29T18:22:32;26.70;1.00
8481;DHT22;4277;51.354;6.740;2022-07-29T18:24:57;26.50;1.00
8481;DHT22;4277;51.354;6.740;2022-07-29T18:27:23;26.30;1.00
8481;DHT22;4277;51.354;6.740;2022-07-29T18:29:51;26.10;1.00
8481;DHT22;4277;51.354;6.740;2022-07-29T18:32:17;25.90;1.00
8481;DHT22;4277;51.354;6.740;2022-07-29T18:34:43;25.70;1.00
8481;DHT22;4277;51.354;6.740;2022-07-29T18:37:09;25.50;1.00
8481;DHT22;4277;51.354;6.740;2022-07-29T18:39:35;25.30;1.00
8481;DHT22;4277;51.354;6.740;2022-07-29T18:42:00;25.20;1.00
8481;DHT22;4277;51.354;6.740;2022-07-29T18:44:26;25.10;1.00
8481;DHT22;4277;51.354;6.740;2022-07-29T18:46:51;24.90;1.00
8481;DHT22;4277;51.354;6.740;2022-07-29T18:49:17;24.80;1.00
8481;DHT22;4277;51.354;6.740;2022-07-29T18:51:43;24.70;1.00
8481;DHT22;4277;51.354;6.740;2022-07-29T18:54:09;24.60;1.00
8481;DHT22;4277;51.354;6.740;2022-07-29T18:56:35;24.50;1.00
8481;DHT22;4277;51.354;6.740;2022-07-29T18:59:00;24.40;1.00
8481;DHT22;4277;51.354;6.740;2022-07-29T19:01:27;24.20;1.00
8481;DHT22;4277;51.354;6.740;2022-07-29T19:03:52;24.20;1.00
8481;DHT22;4277;51.354;6.740;2022-07-29T19:06:18;24.10;1.00
8481;DHT22;4277;51.354;6.740;2022-07-29T19:11:09;23.90;45.90
8481;DHT22;4277;51.354;6.740;2022-07-29T19:13:37;23.80;4.10
8481;DHT22;4277;51.354;6.740;2022-07-29T19:16:03;23.70;6.00
8481;DHT22;4277;51.354;6.740;2022-07-29T19:18:29;23.60;8.40
8481;DHT22;4277;51.354;6.740;2022-07-29T19:20:55;23.50;9.80
8481;DHT22;4277;51.354;6.740;2022-07-29T19:23:20;23.40;9.30
8481;DHT22;4277;51.354;6.740;2022-07-29T19:25:46;23.20;23.70
8481;DHT22;4277;51.354;6.740;2022-07-29T19:30:37;22.80;9.70
8481;DHT22;4277;51.354;6.740;2022-07-29T19:33:04;22.60;10.80
8481;DHT22;4277;51.354;6.740;2022-07-29T19:35:30;22.60;12.40
8481;DHT22;4277;51.354;6.740;2022-07-29T19:37:57;22.30;13.40
8481;DHT22;4277;51.354;6.740;2022-07-29T19:40:23;22.30;13.90
8481;DHT22;4277;51.354;6.740;2022-07-29T19:42:53;22.20;17.10
8481;DHT22;4277;51.354;6.740;2022-07-29T19:45:22;22.00;23.00
8481;DHT22;4277;51.354;6.740;2022-07-29T19:47:49;22.00;28.70
8481;DHT22;4277;51.354;6.740;2022-07-29T19:50:15;22.00;36.10
8481;DHT22;4277;51.354;6.740;2022-07-29T19:52:41;22.00;47.30
8481;DHT22;4277;51.354;6.740;2022-07-29T19:55:08;21.90;46.00
8481;DHT22;4277;51.354;6.740;2022-07-29T19:57:34;21.90;48.10
8481;DHT22;4277;51.354;6.740;2022-07-29T20:00:00;21.80;44.70
8481;DHT22;4277;51.354;6.740;2022-07-29T20:02:25;21.80;43.80
8481;DHT22;4277;51.354;6.740;2022-07-29T20:04:51;21.60;45.70
8481;DHT22;4277;51.354;6.740;2022-07-29T20:07:16;21.50;46.20
8481;DHT22;4277;51.354;6.740;2022-07-29T20:09:42;21.50;46.20
8481;DHT22;4277;51.354;6.740;2022-07-29T20:12:09;21.40;57.90
8481;DHT22;4277;51.354;6.740;2022-07-29T20:14:36;21.30;67.50
8481;DHT22;4277;51.354;6.740;2022-07-29T20:17:01;21.30;45.90
8481;DHT22;4277;51.354;6.740;2022-07-29T20:19:27;21.20;45.50
8481;DHT22;4277;51.354;6.740;2022-07-29T20:21:53;21.10;45.80
8481;DHT22;4277;51.354;6.740;2022-07-29T20:24:19;21.10;50.30
8481;DHT22;4277;51.354;6.740;2022-07-29T20:26:45;21.10;48.60
8481;DHT22;4277;51.354;6.740;2022-07-29T20:29:11;21.00;48.50
8481;DHT22;4277;51.354;6.740;2022-07-29T20:31:37;20.90;49.20
8481;DHT22;4277;51.354;6.740;2022-07-29T20:34:02;20.90;53.00
8481;DHT22;4277;51.354;6.740;2022-07-29T20:36:28;20.80;55.00
8481;DHT22;4277;51.354;6.740;2022-07-29T20:38:55;20.80;56.00
8481;DHT22;4277;51.354;6.740;2022-07-29T20:41:20;20.90;57.20
8481;DHT22;4277;51.354;6.740;2022-07-29T20:43:46;20.90;57.00
8481;DHT22;4277;51.354;6.740;2022-07-29T20:46:14;20.90;58.60
8481;DHT22;4277;51.354;6.740;2022-07-29T20:48:40;21.00;60.70
8481;DHT22;4277;51.354;6.740;2022-07-29T20:51:05;20.90;59.10
8481;DHT22;4277;51.354;6.740;2022-07-29T20:53:31;20.90;59.60
8481;DHT22;4277;51.354;6.740;2022-07-29T20:55:58;20.90;61.90
8481;DHT22;4277;51.354;6.740;2022-07-29T20:58:24;20.90;60.90
8481;DHT22;4277;51.354;6.740;2022-07-29T21:00:50;20.90;61.20
8481;DHT22;4277;51.354;6.740;2022-07-29T21:03:16;20.90;64.60
8481;DHT22;4277;51.354;6.740;2022-07-29T21:08:09;20.70;64.90
8481;DHT22;4277;51.354;6.740;2022-07-29T21:10:35;20.70;67.00
8481;DHT22;4277;51.354;6.740;2022-07-29T21:52:30;20.60;77.70
8481;DHT22;4277;51.354;6.740;2022-07-29T21:54:55;20.50;73.60
8481;DHT22;4277;51.354;6.740;2022-07-29T21:57:21;20.40;76.30
8481;DHT22;4277;51.354;6.740;2022-07-29T21:59:47;20.40;78.80
8481;DHT22;4277;51.354;6.740;2022-07-29T22:02:12;20.40;76.90
8481;DHT22;4277;51.354;6.740;2022-07-29T22:04:38;20.40;79.00
8481;DHT22;4277;51.354;6.740;2022-07-29T22:07:03;20.30;79.70
8481;DHT22;4277;51.354;6.740;2022-07-29T22:09:29;20.30;77.40
8481;DHT22;4277;51.354;6.740;2022-07-29T22:11:55;20.40;77.50
8481;DHT22;4277;51.354;6.740;2022-07-29T22:14:20;20.40;81.00
8481;DHT22;4277;51.354;6.740;2022-07-29T22:16:47;20.40;82.40
8481;DHT22;4277;51.354;6.740;2022-07-29T22:19:13;20.40;79.00
8481;DHT22;4277;51.354;6.740;2022-07-29T22:21:39;20.40;83.10
8481;DHT22;4277;51.354;6.740;2022-07-29T22:24:05;20.50;81.60
8481;DHT22;4277;51.354;6.740;2022-07-29T22:26:31;20.50;81.70
8481;DHT22;4277;51.354;6.740;2022-07-29T22:28:57;20.50;83.30
8481;DHT22;4277;51.354;6.740;2022-07-29T22:31:22;20.40;83.70
8481;DHT22;4277;51.354;6.740;2022-07-29T22:33:49;20.30;82.50
8481;DHT22;4277;51.354;6.740;2022-07-29T22:36:15;20.40;84.60
8481;DHT22;4277;51.354;6.740;2022-07-29T22:38:41;20.40;84.00
8481;DHT22;4277;51.354;6.740;2022-07-29T22:41:06;20.30;84.90
8481;DHT22;4277;51.354;6.740;2022-07-29T22:43:32;20.30;85.80
8481;DHT22;4277;51.354;6.740;2022-07-29T22:45:57;20.30;86.00
8481;DHT22;4277;51.354;6.740;2022-07-29T22:48:23;20.30;85.90
8481;DHT22;4277;51.354;6.740;2022-07-29T22:50:49;20.30;85.50
8481;DHT22;4277;51.354;6.740;2022-07-29T22:53:14;20.30;86.50
8481;DHT22;4277;51.354;6.740;2022-07-29T22:55:40;20.30;85.90
8481;DHT22;4277;51.354;6.740;2022-07-29T22:58:05;20.30;88.40
8481;DHT22;4277;51.354;6.740;2022-07-29T23:00:31;20.30;88.40
